createdAt,value
2023-03-22T00:01:59.689Z,6.15
2023-03-22T00:04:25.850Z,5.95
2023-03-22T00:06:51.970Z,5.88
2023-03-22T00:09:18.178Z,6.03
2023-03-22T00:11:44.360Z,6.13
2023-03-22T00:14:10.505Z,6.00
2023-03-22T00:16:36.682Z,5.97
2023-03-22T00:19:02.810Z,5.68
2023-03-22T00:21:28.970Z,5.82
2023-03-22T00:23:55.092Z,6.05
2023-03-22T00:26:21.289Z,5.47
2023-03-22T00:28:47.413Z,4.93
2023-03-22T00:31:13.639Z,5.28
2023-03-22T00:33:39.875Z,5.25
2023-03-22T00:36:06.046Z,5.22
2023-03-22T00:38:41.751Z,5.10
2023-03-22T00:41:08.861Z,4.90
2023-03-22T00:43:35.069Z,5.00
2023-03-22T00:46:01.230Z,4.90
2023-03-22T00:48:27.370Z,4.50
2023-03-22T00:50:53.513Z,4.55
2023-03-22T00:53:19.686Z,4.70
2023-03-22T00:55:45.846Z,5.70
2023-03-22T00:58:12.018Z,5.00
2023-03-22T01:00:38.413Z,4.20
2023-03-22T01:03:04.870Z,4.78
2023-03-22T01:05:31.069Z,4.72
2023-03-22T01:07:57.272Z,4.45
2023-03-22T01:10:23.404Z,5.10
2023-03-22T01:12:49.536Z,4.60
2023-03-22T01:15:15.718Z,5.05
2023-03-22T01:17:41.900Z,4.63
2023-03-22T01:20:08.063Z,5.03
2023-03-22T01:22:34.187Z,4.65
2023-03-22T01:25:00.335Z,4.50
2023-03-22T01:27:26.513Z,4.78
2023-03-22T01:29:52.709Z,4.43
2023-03-22T01:32:18.897Z,4.82
2023-03-22T01:34:45.073Z,4.40
2023-03-22T01:37:11.243Z,4.90
2023-03-22T01:39:37.366Z,5.45
2023-03-22T01:42:03.537Z,4.82
2023-03-22T01:44:29.705Z,4.53
2023-03-22T01:46:55.850Z,4.45
2023-03-22T01:49:22.080Z,4.72
2023-03-22T01:51:48.278Z,4.65
2023-03-22T01:54:14.438Z,4.68
2023-03-22T01:56:40.563Z,5.10
2023-03-22T01:59:06.818Z,4.38
2023-03-22T02:01:33.052Z,5.25
2023-03-22T02:03:59.296Z,4.85
2023-03-22T02:06:25.469Z,4.90
2023-03-22T02:08:51.639Z,5.05
2023-03-22T02:11:17.827Z,5.50
2023-03-22T02:13:44.034Z,5.25
2023-03-22T02:16:10.247Z,5.00
2023-03-22T02:18:36.439Z,4.75
2023-03-22T02:21:02.666Z,4.95
2023-03-22T02:23:28.864Z,5.07
2023-03-22T02:25:55.055Z,4.68
2023-03-22T02:28:21.248Z,4.93
2023-03-22T02:30:47.404Z,4.65
2023-03-22T02:33:13.626Z,4.80
2023-03-22T02:35:39.838Z,4.90
2023-03-22T02:38:05.991Z,5.35
2023-03-22T02:40:32.178Z,5.68
2023-03-22T02:42:58.344Z,5.22
2023-03-22T02:45:24.473Z,5.80
2023-03-22T02:47:50.740Z,5.72
2023-03-22T02:50:16.938Z,5.28
2023-03-22T02:52:43.101Z,4.95
2023-03-22T02:55:09.264Z,5.78
2023-03-22T02:57:35.453Z,5.10
2023-03-22T03:00:01.675Z,5.03
2023-03-22T03:02:27.887Z,5.38
2023-03-22T03:04:54.128Z,5.22
2023-03-22T03:12:50.401Z,5.18
2023-03-22T03:15:16.558Z,4.65
2023-03-22T03:17:42.710Z,5.90
2023-03-22T03:20:08.862Z,5.22
2023-03-22T03:22:35.061Z,4.93
2023-03-22T03:25:01.234Z,4.97
2023-03-22T03:27:27.388Z,4.85
2023-03-22T03:29:53.557Z,5.45
2023-03-22T03:32:19.710Z,5.28
2023-03-22T03:34:45.870Z,5.10
2023-03-22T03:37:12.020Z,5.13
2023-03-22T03:39:38.160Z,5.07
2023-03-22T03:42:04.310Z,4.63
2023-03-22T03:44:30.499Z,4.47
2023-03-22T03:46:56.699Z,4.78
2023-03-22T03:49:22.864Z,4.40
2023-03-22T03:51:49.051Z,4.93
2023-03-22T03:54:15.191Z,5.00
2023-03-22T03:56:41.338Z,4.82
2023-03-22T03:59:07.465Z,5.45
2023-03-22T04:01:33.618Z,4.70
2023-03-22T04:03:59.836Z,5.45
2023-03-22T04:06:26.053Z,4.80
2023-03-22T04:08:52.193Z,4.80
2023-03-22T04:11:18.386Z,5.22
2023-03-22T04:13:44.573Z,4.80
2023-03-22T04:16:10.744Z,5.40
2023-03-22T04:18:36.903Z,4.65
2023-03-22T04:21:03.044Z,4.72
2023-03-22T04:23:29.244Z,4.60
2023-03-22T04:25:55.397Z,4.35
2023-03-22T04:28:21.515Z,4.20
2023-03-22T04:30:47.670Z,4.43
2023-03-22T04:33:13.866Z,4.28
2023-03-22T04:35:40.028Z,4.28
2023-03-22T04:38:06.159Z,4.07
2023-03-22T04:40:32.299Z,4.50
2023-03-22T04:42:58.472Z,4.20
2023-03-22T04:45:24.620Z,4.60
2023-03-22T04:47:50.778Z,4.25
2023-03-22T04:50:16.964Z,4.20
2023-03-22T04:52:43.117Z,4.53
2023-03-22T04:55:09.277Z,4.03
2023-03-22T04:57:35.452Z,4.18
2023-03-22T05:00:01.606Z,3.90
2023-03-22T05:02:27.757Z,3.72
2023-03-22T05:04:53.919Z,4.80
2023-03-22T05:07:20.038Z,4.53
2023-03-22T05:09:46.199Z,4.20
2023-03-22T05:12:12.333Z,4.10
2023-03-22T05:14:38.586Z,4.88
2023-03-22T05:17:04.813Z,4.45
2023-03-22T05:19:31.002Z,5.05
2023-03-22T05:21:57.182Z,4.65
2023-03-22T05:24:23.359Z,4.50
2023-03-22T05:26:49.581Z,3.55
2023-03-22T05:29:15.815Z,4.43
2023-03-22T05:31:41.998Z,4.30
2023-03-22T05:34:08.180Z,4.60
2023-03-22T05:36:34.322Z,4.10
2023-03-22T05:39:00.474Z,4.30
2023-03-22T05:41:26.741Z,4.90
2023-03-22T05:43:52.956Z,4.10
2023-03-22T05:46:19.188Z,3.97
2023-03-22T05:48:45.418Z,4.38
2023-03-22T05:51:11.604Z,4.80
2023-03-22T05:53:37.730Z,4.68
2023-03-22T05:56:03.872Z,4.50
2023-03-22T05:58:30.001Z,4.18
2023-03-22T06:00:56.149Z,4.70
2023-03-22T06:03:22.418Z,4.88
2023-03-22T06:05:48.629Z,4.05
2023-03-22T06:08:14.834Z,4.35
2023-03-22T06:10:41.301Z,3.95
2023-03-22T06:13:07.694Z,4.20
2023-03-22T06:15:33.881Z,4.38
2023-03-22T06:18:00.043Z,3.63
2023-03-22T06:20:26.180Z,4.60
2023-03-22T06:22:52.326Z,4.53
2023-03-22T06:25:18.449Z,4.57
2023-03-22T06:27:44.587Z,4.20
2023-03-22T06:30:10.730Z,4.45
2023-03-22T06:32:36.881Z,4.22
2023-03-22T06:35:03.050Z,3.95
2023-03-22T06:37:29.257Z,4.47
2023-03-22T06:39:55.486Z,3.95
2023-03-22T06:42:21.639Z,4.60
2023-03-22T06:44:47.772Z,4.07
2023-03-22T06:47:13.970Z,4.68
2023-03-22T06:49:40.164Z,4.28
2023-03-22T06:52:06.341Z,3.70
2023-03-22T06:54:32.478Z,3.70
2023-03-22T06:56:58.626Z,4.15
2023-03-22T06:59:24.766Z,4.88
2023-03-22T07:01:50.898Z,3.65
2023-03-22T07:04:17.158Z,4.30
2023-03-22T07:06:43.307Z,4.45
2023-03-22T07:09:09.458Z,4.35
2023-03-22T07:11:35.636Z,4.10
2023-03-22T07:14:01.771Z,4.13
2023-03-22T07:16:28.030Z,3.55
2023-03-22T07:18:54.192Z,4.25
2023-03-22T07:21:20.319Z,3.88
2023-03-22T07:23:46.457Z,4.38
2023-03-22T07:26:12.604Z,4.32
2023-03-22T07:31:29.811Z,4.20
2023-03-22T07:33:56.027Z,4.60
2023-03-22T07:36:22.161Z,4.57
2023-03-22T07:38:48.325Z,3.65
2023-03-22T07:41:17.835Z,3.85
2023-03-22T07:43:53.367Z,3.53
2023-03-22T07:46:24.901Z,4.07
2023-03-22T07:48:51.051Z,3.50
2023-03-22T07:51:17.178Z,3.08
2023-03-22T07:53:43.357Z,3.60
2023-03-22T07:56:09.505Z,3.60
2023-03-22T07:58:35.717Z,4.00
2023-03-22T08:01:01.985Z,3.80
2023-03-22T08:03:28.203Z,3.63
2023-03-22T08:05:54.387Z,3.38
2023-03-22T08:08:28.937Z,2.83
2023-03-22T08:10:55.222Z,3.10
2023-03-22T08:13:21.396Z,3.20
2023-03-22T08:15:47.610Z,3.28
2023-03-22T08:18:13.835Z,3.30
2023-03-22T08:20:40.218Z,3.05
2023-03-22T08:23:06.517Z,2.70
2023-03-22T08:25:32.748Z,3.08
2023-03-22T08:27:58.916Z,2.88
2023-03-22T08:30:25.101Z,2.97
2023-03-22T08:32:51.269Z,2.88
2023-03-22T08:35:17.529Z,3.22
2023-03-22T08:37:43.766Z,2.75
2023-03-22T08:40:09.967Z,2.28
2023-03-22T08:42:36.262Z,2.30
2023-03-22T08:45:02.393Z,2.60
2023-03-22T08:47:28.560Z,2.20
2023-03-22T08:49:54.749Z,2.55
2023-03-22T08:52:20.962Z,2.22
2023-03-22T08:54:47.098Z,2.08
2023-03-22T08:57:13.257Z,1.67
2023-03-22T08:59:39.481Z,2.40
2023-03-22T09:02:05.730Z,2.30
2023-03-22T09:04:32.013Z,1.88
2023-03-22T09:06:58.212Z,1.85
2023-03-22T09:09:24.389Z,1.38
2023-03-22T09:11:50.558Z,1.17
2023-03-22T09:14:16.719Z,1.40
2023-03-22T09:16:42.940Z,1.10
2023-03-22T09:19:09.086Z,1.20
2023-03-22T09:21:35.211Z,1.45
2023-03-22T09:24:01.505Z,1.30
2023-03-22T09:26:27.652Z,1.33
2023-03-22T09:28:53.850Z,1.35
2023-03-22T09:31:20.808Z,1.40
2023-03-22T09:33:47.096Z,1.42
2023-03-22T09:36:13.255Z,1.52
2023-03-22T09:38:39.453Z,1.20
2023-03-22T09:41:05.621Z,1.40
2023-03-22T09:43:33.170Z,1.48
2023-03-22T09:45:59.499Z,1.35
2023-03-22T09:48:25.745Z,1.40
2023-03-22T09:50:51.901Z,1.58
2023-03-22T09:53:18.034Z,1.77
2023-03-22T09:55:44.226Z,1.30
2023-03-22T09:58:10.401Z,1.35
2023-03-22T10:00:36.726Z,1.20
2023-03-22T10:03:02.927Z,1.13
2023-03-22T10:05:29.118Z,1.20
2023-03-22T10:07:55.326Z,1.23
2023-03-22T10:10:21.493Z,1.60
2023-03-22T10:12:47.686Z,1.50
2023-03-22T10:15:13.839Z,1.48
2023-03-22T10:17:39.995Z,1.45
2023-03-22T10:20:06.172Z,1.20
2023-03-22T10:22:32.307Z,1.40
2023-03-22T10:24:58.513Z,1.10
2023-03-22T10:27:24.733Z,1.60
2023-03-22T10:29:50.952Z,1.30
2023-03-22T10:32:17.133Z,1.80
2023-03-22T10:34:43.303Z,1.20
2023-03-22T10:37:09.425Z,1.10
2023-03-22T10:39:36.100Z,1.30
2023-03-22T10:42:03.383Z,1.20
2023-03-22T10:44:29.806Z,1.20
2023-03-22T10:46:56.044Z,1.13
2023-03-22T10:49:22.243Z,1.30
2023-03-22T10:51:48.438Z,1.20
2023-03-22T10:54:15.739Z,1.00
2023-03-22T10:56:41.907Z,1.35
2023-03-22T10:59:08.049Z,1.40
2023-03-22T11:01:34.373Z,1.08
2023-03-22T11:04:00.622Z,1.20
2023-03-22T11:06:26.865Z,1.42
2023-03-22T11:08:53.068Z,1.40
2023-03-22T11:11:19.283Z,1.10
2023-03-22T11:13:45.500Z,1.20
2023-03-22T11:16:11.661Z,1.02
2023-03-22T11:18:37.876Z,1.30
2023-03-22T11:21:04.088Z,1.50
2023-03-22T11:23:30.286Z,1.40
2023-03-22T11:25:56.557Z,1.38
2023-03-22T11:28:22.738Z,1.40
2023-03-22T11:30:48.939Z,1.50
2023-03-22T11:33:15.202Z,1.20
2023-03-22T11:35:41.482Z,1.42
2023-03-22T11:38:07.712Z,1.33
2023-03-22T11:40:33.967Z,1.42
2023-03-22T11:43:00.146Z,1.80
2023-03-22T11:45:26.380Z,1.60
2023-03-22T11:47:52.644Z,1.50
2023-03-22T11:50:18.918Z,1.55
2023-03-22T11:52:45.111Z,1.35
2023-03-22T11:55:11.358Z,1.40
2023-03-22T11:57:37.501Z,1.40
2023-03-22T12:00:03.639Z,1.20
2023-03-22T12:02:29.921Z,1.60
2023-03-22T12:04:56.247Z,1.25
2023-03-22T12:07:22.441Z,1.48
2023-03-22T12:09:48.658Z,1.30
2023-03-22T12:12:14.816Z,1.10
2023-03-22T12:14:41.037Z,1.30
2023-03-22T12:17:07.192Z,1.30
2023-03-22T12:19:33.409Z,1.13
2023-03-22T12:21:59.608Z,1.13
2023-03-22T12:24:25.770Z,1.33
2023-03-22T12:26:51.936Z,1.30
2023-03-22T12:29:18.121Z,1.15
2023-03-22T12:31:44.324Z,0.85
2023-03-22T12:34:10.502Z,1.00
2023-03-22T12:36:36.624Z,1.20
2023-03-22T12:39:02.792Z,1.27
2023-03-22T12:41:34.809Z,1.30
2023-03-22T12:44:01.008Z,1.10
2023-03-22T12:46:27.210Z,0.93
2023-03-22T12:48:54.528Z,1.15
2023-03-22T12:51:20.820Z,1.40
2023-03-22T12:53:47.019Z,1.33
2023-03-22T12:56:13.175Z,1.20
2023-03-22T12:58:39.372Z,1.25
2023-03-22T13:01:05.635Z,1.02
2023-03-22T13:03:34.971Z,1.05
2023-03-22T13:06:01.445Z,1.00
2023-03-22T13:08:27.630Z,1.27
2023-03-22T13:10:56.626Z,1.30
2023-03-22T13:13:22.830Z,1.10
2023-03-22T13:15:49.030Z,1.10
2023-03-22T13:18:15.274Z,1.10
2023-03-22T13:20:41.771Z,1.20
2023-03-22T13:23:08.083Z,1.13
2023-03-22T13:25:34.223Z,1.20
2023-03-22T13:28:00.406Z,1.20
2023-03-22T13:30:28.358Z,1.00
2023-03-22T13:32:56.326Z,0.93
2023-03-22T13:35:22.821Z,1.02
2023-03-22T13:37:49.039Z,1.40
2023-03-22T13:40:15.176Z,1.00
2023-03-22T13:42:41.415Z,1.20
2023-03-22T13:45:07.604Z,1.48
2023-03-22T13:47:33.796Z,0.88
2023-03-22T13:50:00.018Z,1.13
2023-03-22T13:52:26.194Z,1.20
2023-03-22T13:54:52.360Z,1.00
2023-03-22T13:57:18.559Z,1.30
2023-03-22T13:59:44.709Z,1.00
2023-03-22T14:02:10.917Z,1.33
2023-03-22T14:04:37.223Z,1.10
2023-03-22T14:07:03.366Z,0.93
2023-03-22T14:09:29.566Z,1.20
2023-03-22T14:11:57.128Z,1.00
2023-03-22T14:14:23.535Z,1.15
2023-03-22T14:16:49.754Z,1.20
2023-03-22T14:19:15.947Z,1.10
2023-03-22T14:21:42.143Z,1.10
